Terminal Aerodrome Forecast
Issued by NWS El Paso, TX

Home | Current Version | Previous Version | Text Only | Print | Product List | Glossary On
Versions: 1 2 3 4 5 6 7 8 9 10 11 12 13 14 15 16
000
FTUS44 KEPZ 281727
TAFELP
TAF
KELP 281727Z 2818/2918 23008KT P6SM SCT080 SCT200
     FM282200 18009KT P6SM VCTS BKN090CB BKN250
      TEMPO 2823/2903 VRB20G35KT 1SM TSRA BKN040CB
     FM290600 26007KT P6SM SCT080 BKN200
     FM291500 06007KT P6SM FEW070 SCT200=

USA.gov is the U.S. government's official web portal to all federal, state and local government web resources and services.